Welsh Run, Pennsylvania
Current Conditions -  °F | °C
As of 6:53 AM on Friday 31 Oct 2014 (Local Time) from KHGR Reporting Station
Overcast Overcast  
Wind Chill: 44°   Ceiling: 5500
Heat Index: 44°   Visibility: 10mi
Dew Point: 36°   Wind: 0mph
Humidity: 73%   Direction: NA
Pressure: 29.99"   Gusts: NA
Location:  39.7874°N, 77.754°W
Report Text: KHGR 311053Z 00000KT 10SM OVC055 07/02 A2999 RMK AO2 SLP167 T00670022
Loading
Personal Weather Stations






























Interactive Weather Map
Tropical Storm Tracking
New forecast layout! Learn more

10-Day Weather Forecast

Advertisements
Track Severe Weather on mobile